Time;durP1;ratioP1;P1;durP2;ratioP2;P2;SDS_P1;SDS_P2;PMS_P1;PMS_P2;Temp;Humidity;BMP_temperature;BMP_pressure;BME280_temperature;BME280_humidity;BME280_pressure;Samples;Min_cycle;Max_cycle;Signal;HPM_P1;HPM_P2
2023/09/29 05:20:48;;;;;;;;;;;;;;;19.05;67.85;97431.44;4247655;27;10298;-60
2023/09/29 05:22:51;;;;;;;;;;;;;;;19.34;67.09;97437.72;4229556;27;5612;-60
2023/09/29 05:24:53;;;;;;;;;;;;;;;19.55;66.62;97436.31;4238979;27;5634;-61
2023/09/29 05:26:56;;;;;;;;;;;;;;;19.72;66.10;97430.06;4213531;28;5798;-61
2023/09/29 05:29:00;;;;;;;;;;;;;;;19.86;65.71;97433.28;4224195;28;5612;-61
2023/09/29 05:31:03;;;;;;;;;;;;;;;19.97;65.29;97435.13;4225658;28;5520;-61
2023/09/29 05:33:06;;;;;;;;;;;;;;;20.07;64.69;97431.84;4233548;27;5812;-62
2023/09/29 05:35:10;;;;;;;;;;;;;;;20.15;64.27;97436.81;4246450;27;5601;-62
2023/09/29 05:37:14;;;;;;;;;;;;;;;20.21;64.33;97437.75;4227154;28;5659;-62
2023/09/29 05:39:18;;;;;;;;;;;;;;;20.26;63.65;97444.00;4230008;28;5714;-61
2023/09/29 05:41:21;;;;;;;;;;;;;;;20.31;63.83;97443.31;4233121;27;6762;-63
2023/09/29 05:43:24;;;;;;;;;;;;;;;20.35;63.33;97452.50;4226548;28;5612;-62
2023/09/29 05:45:29;;;;;;;;;;;;;;;20.39;63.24;97459.06;4231131;27;6037;-62
2023/09/29 05:47:32;;;;;;;;;;;;;;;20.41;63.26;97456.94;4246448;27;5601;-62
2023/09/29 05:49:35;;;;;;;;;;;;;;;20.44;62.63;97455.66;4232648;27;5624;-62
2023/09/29 05:51:38;;;;;;;;;;;;;;;20.46;62.36;97457.06;4232694;27;5628;-62
2023/09/29 05:53:42;;;;;;;;;;;;;;;20.49;62.36;97467.31;4230451;28;5810;-62
2023/09/29 05:55:45;;;;;;;;;;;;;;;20.50;62.19;97466.28;4225822;28;5729;-65
2023/09/29 05:57:48;;;;;;;;;;;;;;;20.50;61.86;97470.81;4227259;28;5617;-66
2023/09/29 05:59:54;;;;;;;;;;;;;;;20.49;61.92;97477.25;4230234;28;5609;-66
2023/09/29 06:01:57;;;;;;;;;;;;;;;20.48;61.97;97484.47;4229106;28;5652;-66
2023/09/29 06:04:20;;;;;;;;;;;;;;;20.48;61.84;97478.28;4226630;28;5628;-66
2023/09/29 06:06:24;;;;;;;;;;;;;;;20.49;61.87;97479.91;4226938;28;5621;-66
2023/09/29 06:08:26;;;;;;;;;;;;;;;20.50;61.73;97486.91;4228933;28;5634;-66
2023/09/29 06:10:51;;;;;;;;;;;;;;;20.50;61.60;97492.28;4222990;28;5612;-66
2023/09/29 06:12:54;;;;;;;;;;;;;;;20.51;61.22;97499.31;4232254;27;5668;-66
2023/09/29 06:14:57;;;;;;;;;;;;;;;20.51;61.15;97499.31;4246176;27;5609;-66
2023/09/29 06:17:01;;;;;;;;;;;;;;;20.51;61.37;97493.94;4233266;27;5619;-66
2023/09/29 06:19:04;;;;;;;;;;;;;;;20.53;60.87;97494.53;4236217;27;5703;-66
2023/09/29 06:21:07;;;;;;;;;;;;;;;20.52;60.79;97488.34;4226638;28;5797;-66
2023/09/29 06:23:09;;;;;;;;;;;;;;;20.55;60.83;97495.91;4227908;28;5601;-66
2023/09/29 06:25:12;;;;;;;;;;;;;;;20.55;61.14;97495.91;4227867;28;5829;-67
2023/09/29 06:27:16;;;;;;;;;;;;;;;20.57;60.74;97509.09;4223691;28;5801;-66
2023/09/29 06:29:19;;;;;;;;;;;;;;;20.57;60.61;97504.53;4227986;28;5632;-66
2023/09/29 06:31:22;;;;;;;;;;;;;;;20.59;60.97;97498.94;4224891;28;5242;-66
2023/09/29 06:33:26;;;;;;;;;;;;;;;20.58;60.94;97500.78;4230322;28;5795;-66
2023/09/29 06:35:29;;;;;;;;;;;;;;;20.57;60.93;97509.91;4225660;28;5597;-66
2023/09/29 06:37:32;;;;;;;;;;;;;;;20.58;61.33;97516.91;4236072;28;5609;-66
2023/09/29 06:39:35;;;;;;;;;;;;;;;20.59;61.03;97513.16;4220253;28;5796;-66
2023/09/29 06:41:38;;;;;;;;;;;;;;;20.61;61.18;97512.94;4219343;28;5230;-67
2023/09/29 06:43:43;;;;;;;;;;;;;;;20.63;60.99;97521.59;4235793;28;5593;-66
2023/09/29 06:45:46;;;;;;;;;;;;;;;20.63;61.21;97519.72;4235734;28;5677;-66
2023/09/29 06:48:04;;;;;;;;;;;;;;;20.67;61.11;97513.84;4227191;28;5846;-66
2023/09/29 06:50:10;;;;;;;;;;;;;;;20.67;61.49;97520.03;4219308;28;5722;-66
2023/09/29 06:52:14;;;;;;;;;;;;;;;20.68;61.07;97526.22;4231695;28;5664;-66
2023/09/29 06:54:17;;;;;;;;;;;;;;;20.68;61.19;97521.66;4227220;28;5656;-65
2023/09/29 06:56:19;;;;;;;;;;;;;;;20.70;61.02;97534.84;4230649;28;5617;-65
2023/09/29 06:58:22;;;;;;;;;;;;;;;20.72;61.23;97528.19;4219062;28;5608;-65
2023/09/29 07:00:27;;;;;;;;;;;;;;;20.73;60.92;97529.84;4227166;28;5702;-66
2023/09/29 07:02:30;;;;;;;;;;;;;;;20.75;61.32;97538.47;4225628;28;5605;-66
2023/09/29 07:04:33;;;;;;;;;;;;;;;20.75;61.00;97530.41;4235965;28;5059;-66
2023/09/29 07:06:37;;;;;;;;;;;;;;;20.75;61.37;97533.09;4228593;28;5747;-66
2023/09/29 07:08:38;;;;;;;;;;;;;;;20.77;61.02;97541.72;4218708;28;5608;-65
2023/09/29 07:10:43;;;;;;;;;;;;;;;20.78;60.92;97534.47;4235280;28;5613;-65
2023/09/29 07:12:46;;;;;;;;;;;;;;;20.79;61.01;97534.25;4210908;28;5736;-66
2023/09/29 07:14:48;;;;;;;;;;;;;;;20.82;60.70;97543.69;4214375;28;5635;-66
2023/09/29 07:16:54;;;;;;;;;;;;;;;20.83;60.82;97534.56;4218885;28;5636;-66
2023/09/29 07:18:57;;;;;;;;;;;;;;;20.82;61.13;97536.44;4218800;28;5616;-66
2023/09/29 07:21:01;;;;;;;;;;;;;;;20.82;60.94;97544.50;4226941;28;5626;-66
2023/09/29 07:23:04;;;;;;;;;;;;;;;20.82;60.99;97536.44;4226983;28;5826;-67
2023/09/29 07:25:07;;;;;;;;;;;;;;;20.84;60.90;97542.41;4230209;28;5708;-65
2023/09/29 07:27:12;;;;;;;;;;;;;;;20.85;60.61;97538.66;4226998;28;5590;-66
2023/09/29 07:29:15;;;;;;;;;;;;;;;20.87;60.82;97533.88;4235576;28;5691;-66
2023/09/29 07:31:18;;;;;;;;;;;;;;;20.86;60.68;97534.91;4230635;28;5728;-66
2023/09/29 07:33:22;;;;;;;;;;;;;;;20.86;60.58;97540.28;4222773;28;5609;-65
2023/09/29 07:35:25;;;;;;;;;;;;;;;20.85;60.37;97546.72;4229531;28;5715;-66
2023/09/29 07:37:28;;;;;;;;;;;;;;;20.87;60.70;97541.94;4224831;28;5617;-66
2023/09/29 07:39:31;;;;;;;;;;;;;;;20.88;60.72;97540.88;4228516;28;5608;-66
2023/09/29 07:41:33;;;;;;;;;;;;;;;20.88;60.44;97538.19;4226495;28;5624;-66
2023/09/29 07:43:36;;;;;;;;;;;;;;;20.90;60.84;97546.81;4226667;28;5608;-66
2023/09/29 07:45:39;;;;;;;;;;;;;;;20.92;60.31;97550.06;4218393;28;5687;-66
2023/09/29 07:47:42;;;;;;;;;;;;;;;20.93;60.30;97554.38;4226647;28;5593;-65
2023/09/29 07:49:47;;;;;;;;;;;;;;;20.94;60.32;97555.19;4210134;28;5700;-66
2023/09/29 07:51:50;;;;;;;;;;;;;;;20.94;60.64;97561.38;4218898;28;6297;-65
2023/09/29 07:53:52;;;;;;;;;;;;;;;20.97;60.47;97557.44;4235243;28;5605;-65
2023/09/29 07:55:55;;;;;;;;;;;;;;;20.99;60.56;97559.88;4226134;28;5596;-65
2023/09/29 07:57:58;;;;;;;;;;;;;;;20.99;60.35;97560.69;4235161;28;5620;-66
2023/09/29 08:00:01;;;;;;;;;;;;;;;21.01;60.62;97563.13;4234891;28;5589;-65
2023/09/29 08:02:04;;;;;;;;;;;;;;;21.01;60.70;97552.38;4231984;28;5744;-65
2023/09/29 08:04:08;;;;;;;;;;;;;;;21.02;60.66;97554.00;4221306;28;5589;-66
2023/09/29 08:06:14;;;;;;;;;;;;;;;21.05;60.71;97558.88;4222665;28;5719;-66
2023/09/29 08:08:17;;;;;;;;;;;;;;;21.05;60.70;97559.72;4231089;28;5605;-65
2023/09/29 08:10:20;;;;;;;;;;;;;;;21.03;60.37;97551.06;4225773;28;5613;-65
2023/09/29 08:12:22;;;;;;;;;;;;;;;21.06;60.63;97549.75;4221016;28;5817;-65
2023/09/29 08:14:25;;;;;;;;;;;;;;;21.06;60.18;97564.03;4232254;28;5594;-66
2023/09/29 08:16:28;;;;;;;;;;;;;;;21.06;60.39;97557.84;4226477;28;5633;-66
2023/09/29 08:18:31;;;;;;;;;;;;;;;21.08;59.45;97561.94;4226217;28;5107;-66
2023/09/29 08:20:35;;;;;;;;;;;;;;;21.06;59.56;97555.16;4225741;28;5590;-66
2023/09/29 08:22:39;;;;;;;;;;;;;;;21.07;59.17;97563.00;4218560;28;5688;-66
2023/09/29 08:24:44;;;;;;;;;;;;;;;21.08;59.46;97558.44;4209356;28;5621;-66
2023/09/29 08:26:47;;;;;;;;;;;;;;;21.09;59.15;97568.13;4226522;28;5684;-66
2023/09/29 08:28:50;;;;;;;;;;;;;;;21.09;57.90;97570.81;4225204;28;5618;-66
2023/09/29 08:30:53;;;;;;;;;;;;;;;21.03;57.42;97561.81;4227335;28;7777;-67
2023/09/29 08:32:56;;;;;;;;;;;;;;;21.00;57.93;97575.75;4234793;28;5601;-66
2023/09/29 08:35:19;;;;;;;;;;;;;;;21.04;58.05;97578.75;4221144;28;5687;-66
2023/09/29 08:37:22;;;;;;;;;;;;;;;21.06;58.29;97588.22;4231324;28;5745;-67
2023/09/29 08:39:28;;;;;;;;;;;;;;;21.08;58.60;97590.69;4228456;28;5611;-67
2023/09/29 08:41:34;;;;;;;;;;;;;;;21.12;58.30;97581.06;4223838;28;5810;-66
2023/09/29 08:43:39;;;;;;;;;;;;;;;21.15;58.52;97588.66;4218288;28;5625;-66
2023/09/29 08:45:55;;;;;;;;;;;;;;;21.16;58.32;97583.03;4200801;28;5623;-65
2023/09/29 08:48:00;;;;;;;;;;;;;;;21.18;58.34;97574.75;4211122;28;5668;-66
2023/09/29 08:50:05;;;;;;;;;;;;;;;21.22;58.59;97568.63;4217428;28;5774;-66
2023/09/29 08:52:09;;;;;;;;;;;;;;;21.26;58.21;97570.84;4225714;28;5592;-66
2023/09/29 08:54:12;;;;;;;;;;;;;;;21.27;58.33;97567.09;4229915;28;5714;-66
2023/09/29 08:56:18;;;;;;;;;;;;;;;21.29;58.33;97563.13;4221107;28;5828;-66
2023/09/29 08:58:23;;;;;;;;;;;;;;;21.31;58.38;97557.53;4225773;28;5620;-66
2023/09/29 09:00:27;;;;;;;;;;;;;;;21.33;57.99;97561.59;4231604;28;6286;-66
2023/09/29 09:02:30;;;;;;;;;;;;;;;21.34;58.26;97552.47;4225822;28;5589;-66
2023/09/29 09:04:33;;;;;;;;;;;;;;;21.35;58.28;97559.47;4225646;28;5708;-66
2023/09/29 09:06:36;;;;;;;;;;;;;;;21.38;58.23;97558.16;4221429;28;5676;-66
2023/09/29 09:08:39;;;;;;;;;;;;;;;21.39;58.13;97565.16;4214765;28;5980;-66
2023/09/29 09:10:43;;;;;;;;;;;;;;;21.40;58.27;97562.22;4216972;28;5609;-65
2023/09/29 09:12:50;;;;;;;;;;;;;;;21.41;57.84;97563.88;4225725;28;5725;-66
2023/09/29 09:14:53;;;;;;;;;;;;;;;21.42;58.28;97570.09;4216193;28;5628;-66
2023/09/29 09:16:56;;;;;;;;;;;;;;;21.44;58.02;97584.91;4207626;28;5608;-66
2023/09/29 09:19:09;;;;;;;;;;;;;;;21.44;57.92;97582.22;4213090;28;5703;-66
2023/09/29 09:21:12;;;;;;;;;;;;;;;21.48;58.22;97574.47;4176511;28;6502;-66
2023/09/29 09:23:15;;;;;;;;;;;;;;;21.49;57.84;97571.53;4173996;28;5915;-66
2023/09/29 09:25:18;;;;;;;;;;;;;;;21.50;57.71;97572.34;4175811;28;5724;-66
2023/09/29 09:27:21;;;;;;;;;;;;;;;21.49;57.51;97571.53;4183546;28;5831;-67
2023/09/29 09:29:26;;;;;;;;;;;;;;;21.52;57.63;97559.50;4176106;28;5763;-67
2023/09/29 09:31:28;;;;;;;;;;;;;;;21.51;56.72;97561.34;4180443;28;6414;-67
2023/09/29 09:33:32;;;;;;;;;;;;;;;21.52;57.29;97559.50;4183146;28;5788;-66
2023/09/29 09:35:38;;;;;;;;;;;;;;;21.54;56.98;97554.69;4178909;28;5716;-66
2023/09/29 09:37:42;;;;;;;;;;;;;;;21.56;57.07;97559.81;4176952;28;5847;-67
2023/09/29 09:39:45;;;;;;;;;;;;;;;21.56;56.71;97552.56;4183283;28;5750;-65
2023/09/29 09:41:51;;;;;;;;;;;;;;;21.56;56.90;97559.81;4181051;28;5806;-67
2023/09/29 09:43:53;;;;;;;;;;;;;;;21.58;57.13;97557.69;4169976;28;5887;-67
2023/09/29 09:46:12;;;;;;;;;;;;;;;21.61;56.76;97562.56;4176881;28;5956;-69
2023/09/29 09:48:20;;;;;;;;;;;;;;;21.65;56.40;97552.97;4183517;28;5790;-67
2023/09/29 09:50:28;;;;;;;;;;;;;;;21.69;56.57;97554.09;4182818;28;5712;-69
2023/09/29 09:52:31;;;;;;;;;;;;;;;21.71;56.55;97562.72;4181555;28;5719;-68
2023/09/29 09:54:40;;;;;;;;;;;;;;;21.71;56.27;97566.25;4181302;28;5839;-68
2023/09/29 09:56:47;;;;;;;;;;;;;;;21.72;56.49;97565.19;4184014;28;5707;-67
2023/09/29 09:58:50;;;;;;;;;;;;;;;21.74;55.80;97565.75;4185201;28;5791;-67
2023/09/29 10:00:55;;;;;;;;;;;;;;;21.76;56.01;97558.25;4186163;28;5933;-66
2023/09/29 10:03:03;;;;;;;;;;;;;;;21.77;55.22;97562.56;4182920;28;5715;-67
2023/09/29 10:05:12;;;;;;;;;;;;;;;21.78;54.70;97560.69;4185280;28;5138;-67
2023/09/29 10:07:17;;;;;;;;;;;;;;;21.80;54.78;97561.25;4185331;28;5719;-66
2023/09/29 10:09:20;;;;;;;;;;;;;;;21.82;54.80;97553.75;4181077;28;5781;-66
2023/09/29 10:11:26;;;;;;;;;;;;;;;21.83;54.67;97555.38;4169517;28;5741;-67
2023/09/29 10:13:35;;;;;;;;;;;;;;;21.83;54.70;97550.00;4185996;28;6008;-66
2023/09/29 10:15:39;;;;;;;;;;;;;;;21.88;53.97;97554.66;4171023;28;7779;-66
2023/09/29 10:17:43;;;;;;;;;;;;;;;21.89;53.77;97549.03;4180742;28;5828;-67
2023/09/29 10:19:50;;;;;;;;;;;;;;;21.91;54.02;97552.28;4197843;28;5608;-67
2023/09/29 10:21:53;;;;;;;;;;;;;;;21.91;53.48;97552.28;4218090;28;5816;-67
2023/09/29 10:24:00;;;;;;;;;;;;;;;21.92;53.90;97556.59;4215925;28;5801;-67
2023/09/29 10:26:04;;;;;;;;;;;;;;;21.94;53.69;97546.41;4217978;28;5755;-68
2023/09/29 10:28:08;;;;;;;;;;;;;;;21.94;53.61;97550.97;4218452;28;5778;-66
2023/09/29 10:30:16;;;;;;;;;;;;;;;21.94;53.14;97545.59;4218257;28;5108;-65
2023/09/29 10:32:22;;;;;;;;;;;;;;;21.94;53.08;97545.59;4216868;28;5826;-66
2023/09/29 10:34:32;;;;;;;;;;;;;;;21.94;53.25;97549.09;4219494;28;5706;-65
2023/09/29 10:36:35;;;;;;;;;;;;;;;21.94;53.03;97554.47;4216841;28;5938;-66
2023/09/29 10:38:40;;;;;;;;;;;;;;;21.94;53.01;97553.66;4217864;28;5785;-66
2023/09/29 10:40:44;;;;;;;;;;;;;;;21.95;52.61;97548.03;4217878;28;5711;-66
2023/09/29 10:42:48;;;;;;;;;;;;;;;21.97;52.87;97553.16;4217852;28;5735;-67
2023/09/29 10:44:52;;;;;;;;;;;;;;;21.98;52.81;97557.50;4217163;28;5736;-66
2023/09/29 10:46:56;;;;;;;;;;;;;;;21.99;52.80;97559.13;4218255;28;5616;-67
2023/09/29 10:48:59;;;;;;;;;;;;;;;21.99;52.71;97549.19;4215497;28;5608;-67
2023/09/29 10:51:02;;;;;;;;;;;;;;;22.00;52.50;97552.69;4218008;28;5639;-66
2023/09/29 10:53:07;;;;;;;;;;;;;;;22.01;52.35;97546.22;4218769;28;5766;-66
2023/09/29 10:55:12;;;;;;;;;;;;;;;22.03;51.94;97542.22;4218288;28;6422;-65
2023/09/29 10:57:20;;;;;;;;;;;;;;;22.04;51.77;97548.41;4217897;28;6329;-66
2023/09/29 10:59:23;;;;;;;;;;;;;;;22.05;51.84;97552.75;4217370;28;5080;-66
2023/09/29 11:01:32;;;;;;;;;;;;;;;22.04;51.65;97549.22;4217897;28;5632;-66
2023/09/29 11:03:35;;;;;;;;;;;;;;;22.05;51.68;97544.66;4216250;28;6666;-66
2023/09/29 11:05:48;;;;;;;;;;;;;;;22.04;51.65;97538.47;4218206;28;5628;-66
2023/09/29 11:07:52;;;;;;;;;;;;;;;22.04;51.49;97543.84;4217395;28;6338;-66
2023/09/29 11:09:56;;;;;;;;;;;;;;;22.07;51.52;97550.63;4218216;28;6426;-67
2023/09/29 11:11:59;;;;;;;;;;;;;;;22.06;51.32;97544.44;4217810;28;5635;-67
2023/09/29 11:14:04;;;;;;;;;;;;;;;22.11;51.12;97541.03;4215829;28;5616;-67
2023/09/29 11:16:16;;;;;;;;;;;;;;;22.16;51.04;97535.69;4217643;28;5793;-67
2023/09/29 11:18:27;;;;;;;;;;;;;;;22.18;50.57;97533.56;4217918;28;5776;-66
2023/09/29 11:20:31;;;;;;;;;;;;;;;22.19;50.87;97526.28;4215338;28;5612;-66
2023/09/29 11:22:36;;;;;;;;;;;;;;;22.23;50.37;97530.13;4217665;28;5612;-66
2023/09/29 11:24:40;;;;;;;;;;;;;;;22.26;50.54;97527.75;4217907;28;5612;-65
2023/09/29 11:26:46;;;;;;;;;;;;;;;22.28;50.46;97527.50;4218918;28;5623;-66
2023/09/29 11:28:51;;;;;;;;;;;;;;;22.32;50.14;97517.88;4217268;28;5608;-67
2023/09/29 11:30:55;;;;;;;;;;;;;;;22.33;50.27;97514.13;4217202;28;5640;-66
2023/09/29 11:32:58;;;;;;;;;;;;;;;22.31;50.30;97511.66;4218187;28;6417;-66
2023/09/29 11:35:02;;;;;;;;;;;;;;;22.33;49.90;97511.41;4217644;28;5612;-66
2023/09/29 11:37:05;;;;;;;;;;;;;;;22.34;50.38;97510.34;4217313;28;5623;-66
2023/09/29 11:39:08;;;;;;;;;;;;;;;22.31;50.46;97508.13;4217438;28;5779;-66
2023/09/29 11:41:12;;;;;;;;;;;;;;;22.30;50.02;97510.00;4217866;28;5783;-67
2023/09/29 11:43:17;;;;;;;;;;;;;;;22.31;50.24;97511.66;4218073;28;5694;-67
2023/09/29 11:45:19;;;;;;;;;;;;;;;22.32;50.39;97507.09;4216805;28;5616;-69
2023/09/29 11:47:22;;;;;;;;;;;;;;;22.31;50.27;97503.59;4216296;28;5822;-67
2023/09/29 11:49:26;;;;;;;;;;;;;;;22.33;50.15;97500.63;4216665;28;5631;-66
2023/09/29 11:51:29;;;;;;;;;;;;;;;22.35;50.78;97504.72;4216863;28;5732;-65
2023/09/29 11:53:32;;;;;;;;;;;;;;;22.37;50.63;97501.75;4215804;28;5799;-65
2023/09/29 11:55:35;;;;;;;;;;;;;;;22.38;50.93;97498.81;4217482;28;5850;-66
2023/09/29 11:57:40;;;;;;;;;;;;;;;22.41;50.43;97492.09;4215561;28;5815;-66
2023/09/29 11:59:44;;;;;;;;;;;;;;;22.46;50.20;97491.34;4217282;28;5833;-66
2023/09/29 12:01:47;;;;;;;;;;;;;;;22.50;50.17;97487.91;4201530;28;7671;-67
2023/09/29 12:03:51;;;;;;;;;;;;;;;22.53;50.63;97475.78;4229130;28;5604;-67
2023/09/29 12:05:54;;;;;;;;;;;;;;;22.54;50.61;97480.16;4217759;28;5616;-67
2023/09/29 12:07:57;;;;;;;;;;;;;;;22.54;50.36;97467.47;4226269;28;5593;-66
2023/09/29 12:10:01;;;;;;;;;;;;;;;22.55;50.52;97474.50;4219822;28;5644;-67
2023/09/29 12:12:04;;;;;;;;;;;;;;;22.56;50.83;97476.13;4231718;28;5631;-67
2023/09/29 12:14:08;;;;;;;;;;;;;;;22.58;50.64;97476.69;4218148;28;5612;-67
2023/09/29 12:16:13;;;;;;;;;;;;;;;22.59;50.79;97482.88;4226535;28;5680;-67
2023/09/29 12:18:15;;;;;;;;;;;;;;;22.60;50.37;97479.94;4217025;28;7779;-66
2023/09/29 12:20:19;;;;;;;;;;;;;;;22.64;50.37;97480.22;4227662;28;5536;-66
2023/09/29 12:22:22;;;;;;;;;;;;;;;22.65;50.72;97476.47;4214980;28;5809;-66
2023/09/29 12:24:25;;;;;;;;;;;;;;;22.64;50.46;97466.75;4214121;28;5646;-66
2023/09/29 12:26:28;;;;;;;;;;;;;;;22.63;50.21;97470.50;4223555;28;5593;-66
2023/09/29 12:28:30;;;;;;;;;;;;;;;22.61;50.70;97475.34;4226018;28;5601;-66
2023/09/29 12:30:34;;;;;;;;;;;;;;;22.59;50.72;97461.31;4220129;28;5775;-67
2023/09/29 12:32:38;;;;;;;;;;;;;;;22.60;50.55;97474.53;4216942;28;5861;-67
2023/09/29 12:34:41;;;;;;;;;;;;;;;22.60;50.36;97463.75;4215790;28;5605;-67
2023/09/29 12:36:45;;;;;;;;;;;;;;;22.61;50.82;97468.09;4217523;28;5612;-66
2023/09/29 12:38:48;;;;;;;;;;;;;;;22.60;50.76;97462.94;4223951;28;5757;-66
2023/09/29 12:40:51;;;;;;;;;;;;;;;22.60;50.71;97457.56;4216223;28;7063;-66
2023/09/29 12:42:54;;;;;;;;;;;;;;;22.61;50.54;97460.00;4216363;28;5772;-67
2023/09/29 12:44:57;;;;;;;;;;;;;;;22.60;50.32;97454.88;4216642;28;5625;-66
2023/09/29 12:47:00;;;;;;;;;;;;;;;22.59;50.33;97461.31;4216201;28;5620;-66
2023/09/29 12:49:04;;;;;;;;;;;;;;;22.60;50.79;97452.97;4216750;28;6938;-67
2023/09/29 12:51:08;;;;;;;;;;;;;;;22.59;50.60;97462.13;4217967;28;5617;-66
2023/09/29 12:53:10;;;;;;;;;;;;;;;22.60;50.92;97463.75;4216848;28;5727;-67
2023/09/29 12:55:18;;;;;;;;;;;;;;;22.60;50.62;97457.56;4216700;28;5759;-67
2023/09/29 12:57:21;;;;;;;;;;;;;;;22.60;51.02;97466.47;4215703;28;5707;-68
2023/09/29 12:59:25;;;;;;;;;;;;;;;22.61;51.22;97460.00;4214901;28;6328;-67
2023/09/29 13:01:28;;;;;;;;;;;;;;;22.61;51.06;97461.88;4217058;28;5730;-68
2023/09/29 13:03:31;;;;;;;;;;;;;;;22.60;50.90;97466.47;4217046;28;5662;-67
2023/09/29 13:05:36;;;;;;;;;;;;;;;22.60;51.18;97461.06;4216621;28;5707;-67
2023/09/29 13:07:40;;;;;;;;;;;;;;;22.60;51.26;97463.75;4212802;28;5735;-67
2023/09/29 13:09:43;;;;;;;;;;;;;;;22.60;50.93;97458.38;4218525;28;5762;-67
2023/09/29 13:11:50;;;;;;;;;;;;;;;22.61;50.94;97454.59;4210254;28;5604;-66
2023/09/29 13:13:54;;;;;;;;;;;;;;;22.61;50.99;97465.38;4218404;28;5695;-66
2023/09/29 13:15:58;;;;;;;;;;;;;;;22.62;51.00;97461.63;4223886;28;5715;-66
2023/09/29 13:18:02;;;;;;;;;;;;;;;22.63;51.06;97455.16;4211401;28;5711;-66
2023/09/29 13:20:06;;;;;;;;;;;;;;;22.63;51.30;97465.94;4217059;28;5615;-66
2023/09/29 13:22:11;;;;;;;;;;;;;;;22.65;51.71;97455.75;4217170;28;5617;-63
2023/09/29 13:24:12;;;;;;;;;;;;;;;22.67;51.62;97452.78;4218229;28;5703;-64
2023/09/29 13:26:17;;;;;;;;;;;;;;;22.69;51.33;97452.53;4213220;28;6303;-65
2023/09/29 13:28:19;;;;;;;;;;;;;;;22.70;51.44;97448.78;4215143;28;5794;-64
2023/09/29 13:30:22;;;;;;;;;;;;;;;22.73;51.28;97456.34;4217286;28;5728;-63
2023/09/29 13:32:25;;;;;;;;;;;;;;;22.73;51.81;97450.94;4216906;28;5611;-63
2023/09/29 13:34:28;;;;;;;;;;;;;;;22.76;51.88;97453.13;4200467;28;5540;-63
2023/09/29 13:36:32;;;;;;;;;;;;;;;22.79;51.91;97458.03;4219296;28;5092;-63
2023/09/29 13:38:36;;;;;;;;;;;;;;;22.80;51.98;97451.56;4218883;28;5879;-63
2023/09/29 13:40:39;;;;;;;;;;;;;;;22.81;51.56;97448.63;4218820;28;5636;-64
2023/09/29 13:42:42;;;;;;;;;;;;;;;22.84;51.78;97450.81;4217832;28;5631;-67
2023/09/29 13:44:45;;;;;;;;;;;;;;;22.84;52.19;97450.00;4218291;28;5623;-66
2023/09/29 13:46:48;;;;;;;;;;;;;;;22.85;52.02;97452.44;4218119;28;5695;-66
2023/09/29 13:49:06;;;;;;;;;;;;;;;22.85;51.97;97448.94;4217325;28;5612;-67
2023/09/29 13:51:09;;;;;;;;;;;;;;;22.87;52.17;97453.00;4218044;28;5196;-67
2023/09/29 13:53:12;;;;;;;;;;;;;;;22.87;52.29;97449.50;4218029;28;5627;-67
2023/09/29 13:55:16;;;;;;;;;;;;;;;22.86;52.34;97454.06;4209315;28;5601;-66
2023/09/29 13:57:20;;;;;;;;;;;;;;;22.86;52.27;97451.38;4209827;28;5719;-67
2023/09/29 13:59:22;;;;;;;;;;;;;;;22.84;52.58;97444.63;4220162;28;5802;-69
2023/09/29 14:01:26;;;;;;;;;;;;;;;22.84;52.60;97445.44;4212438;28;5633;-66
2023/09/29 14:03:29;;;;;;;;;;;;;;;22.83;52.19;97448.34;4216235;28;5641;-67
2023/09/29 14:05:38;;;;;;;;;;;;;;;22.82;52.60;97447.53;4216302;28;5710;-67
2023/09/29 14:07:41;;;;;;;;;;;;;;;22.83;52.66;97445.66;4218039;28;5711;-67
2023/09/29 14:09:45;;;;;;;;;;;;;;;22.83;52.49;97435.72;4218598;28;5759;-67
2023/09/29 14:11:49;;;;;;;;;;;;;;;22.84;53.02;97431.13;4220978;28;5706;-67
2023/09/29 14:13:53;;;;;;;;;;;;;;;22.84;52.92;97437.34;4217130;28;5707;-67
2023/09/29 14:15:56;;;;;;;;;;;;;;;22.84;52.67;97431.94;4224283;28;5617;-67
2023/09/29 14:17:59;;;;;;;;;;;;;;;22.84;52.75;97433.84;4217931;28;5718;-67
2023/09/29 14:20:02;;;;;;;;;;;;;;;22.84;52.92;97436.53;4217010;28;5715;-67
2023/09/29 14:22:05;;;;;;;;;;;;;;;22.87;53.18;97436.00;4215070;28;7229;-70
2023/09/29 14:24:09;;;;;;;;;;;;;;;22.87;53.26;97434.13;4215365;28;5757;-70
2023/09/29 14:26:12;;;;;;;;;;;;;;;22.88;53.16;97437.66;4215635;28;5695;-70
2023/09/29 14:28:16;;;;;;;;;;;;;;;22.90;53.39;97432.81;4216164;28;5613;-70
2023/09/29 14:30:19;;;;;;;;;;;;;;;22.90;53.28;97435.53;4215448;28;5645;-70
2023/09/29 14:32:22;;;;;;;;;;;;;;;22.90;53.40;97443.59;4226380;28;5616;-70
2023/09/29 14:34:25;;;;;;;;;;;;;;;22.91;53.11;97437.16;4219121;28;5683;-70
2023/09/29 14:36:28;;;;;;;;;;;;;;;22.93;53.75;97443.09;4220000;28;5704;-70
2023/09/29 14:38:31;;;;;;;;;;;;;;;22.94;53.89;97440.13;4226057;28;5799;-70
2023/09/29 14:40:36;;;;;;;;;;;;;;;22.95;53.53;97444.44;4213303;28;5679;-69
2023/09/29 14:42:38;;;;;;;;;;;;;;;22.97;53.62;97448.78;4213759;28;6308;-69
2023/09/29 14:44:42;;;;;;;;;;;;;;;22.98;53.81;97448.50;4209793;28;5619;-69
2023/09/29 14:46:44;;;;;;;;;;;;;;;23.02;53.83;97449.66;4201473;28;5772;-70
2023/09/29 14:48:47;;;;;;;;;;;;;;;23.03;53.92;97450.47;4221096;28;5703;-70
2023/09/29 14:50:50;;;;;;;;;;;;;;;23.05;53.74;97445.63;4217743;28;5914;-69
2023/09/29 14:52:53;;;;;;;;;;;;;;;23.03;53.78;97440.47;4217573;28;7700;-69
2023/09/29 14:54:58;;;;;;;;;;;;;;;23.03;53.83;97440.47;4217088;28;5619;-69
2023/09/29 14:57:01;;;;;;;;;;;;;;;23.03;54.00;97434.28;4217438;28;5624;-69
2023/09/29 14:59:04;;;;;;;;;;;;;;;23.03;53.91;97435.09;4214306;28;6029;-69
2023/09/29 15:01:12;;;;;;;;;;;;;;;23.03;54.22;97440.47;4213393;28;5613;-69
2023/09/29 15:03:15;;;;;;;;;;;;;;;23.04;54.11;97444.00;4212508;28;6293;-70
2023/09/29 15:05:18;;;;;;;;;;;;;;;23.05;54.04;97442.91;4215403;28;5719;-68
2023/09/29 15:07:21;;;;;;;;;;;;;;;23.06;54.11;97453.44;4218051;28;5680;-69
2023/09/29 15:09:24;;;;;;;;;;;;;;;23.05;54.26;97443.72;4231113;28;5656;-68
2023/09/29 15:11:27;;;;;;;;;;;;;;;23.06;54.56;97448.06;4219521;28;5613;-70
2023/09/29 15:13:30;;;;;;;;;;;;;;;23.08;54.48;97451.28;4211104;28;5703;-69
2023/09/29 15:15:33;;;;;;;;;;;;;;;23.10;54.41;97451.03;4211319;28;5731;-69
2023/09/29 15:17:37;;;;;;;;;;;;;;;23.10;54.29;97449.16;4215979;28;5950;-69
2023/09/29 15:19:42;;;;;;;;;;;;;;;23.11;54.18;97450.00;4212371;28;5689;-68
2023/09/29 15:21:45;;;;;;;;;;;;;;;23.11;54.52;97450.81;4209979;28;5612;-69
2023/09/29 15:23:53;;;;;;;;;;;;;;;23.13;54.35;97456.75;4217429;28;5701;-69
2023/09/29 15:25:57;;;;;;;;;;;;;;;23.13;54.72;97445.97;4214264;28;5785;-69
2023/09/29 15:28:00;;;;;;;;;;;;;;;23.15;54.25;97443.81;4215188;28;5803;-70
2023/09/29 15:30:05;;;;;;;;;;;;;;;23.16;54.29;97440.03;4216729;28;5979;-69
2023/09/29 15:32:08;;;;;;;;;;;;;;;23.16;54.36;97448.13;4211691;28;5667;-69
2023/09/29 15:34:13;;;;;;;;;;;;;;;23.15;54.27;97443.81;4221865;28;7133;-69
2023/09/29 15:36:15;;;;;;;;;;;;;;;23.19;54.42;97447.63;4219214;28;5824;-70
2023/09/29 15:38:19;;;;;;;;;;;;;;;23.21;54.25;97447.34;4211691;28;5640;-70
2023/09/29 15:40:22;;;;;;;;;;;;;;;23.23;54.16;97446.03;4211511;28;5820;-70
2023/09/29 15:42:25;;;;;;;;;;;;;;;23.23;54.53;97454.13;4216773;28;6305;-71
2023/09/29 15:44:28;;;;;;;;;;;;;;;23.26;54.44;97462.78;4218239;28;5711;-70
2023/09/29 15:46:31;;;;;;;;;;;;;;;23.26;54.45;97465.47;4216733;28;5803;-68
2023/09/29 15:48:36;;;;;;;;;;;;;;;23.26;54.42;97460.09;4213884;28;5609;-67
2023/09/29 15:50:41;;;;;;;;;;;;;;;23.26;54.70;97460.09;4214615;28;5755;-70
2023/09/29 15:52:44;;;;;;;;;;;;;;;23.27;54.69;97461.69;4217410;28;5604;-70
2023/09/29 15:54:47;;;;;;;;;;;;;;;23.26;54.41;97460.91;4215437;28;5707;-69
2023/09/29 15:56:50;;;;;;;;;;;;;;;23.27;54.33;97461.69;4217160;28;5616;-71
2023/09/29 15:58:53;;;;;;;;;;;;;;;23.24;54.39;97458.47;4219144;28;5726;-68
2023/09/29 16:00:56;;;;;;;;;;;;;;;23.26;54.56;97460.09;4215606;28;5636;-68
2023/09/29 16:02:59;;;;;;;;;;;;;;;23.26;54.68;97466.28;4215782;28;5707;-69
2023/09/29 16:05:02;;;;;;;;;;;;;;;23.27;54.81;97467.09;4215274;28;5704;-69
2023/09/29 16:07:07;;;;;;;;;;;;;;;23.26;54.93;97473.56;4218901;28;5867;-69
2023/09/29 16:09:10;;;;;;;;;;;;;;;23.26;54.39;97465.47;4214590;28;5730;-70
2023/09/29 16:11:12;;;;;;;;;;;;;;;23.26;54.97;97470.88;4215285;28;5703;-69
2023/09/29 16:13:17;;;;;;;;;;;;;;;23.27;54.78;97477.88;4215189;28;5632;-70
2023/09/29 16:15:20;;;;;;;;;;;;;;;23.31;54.75;97476.28;4214967;28;5715;-71